sensor_id;sensor_type;location;lat;lon;timestamp;temperature;humidity
17529;DHT22;8882;53.192;8.184;2022-10-31T05:32:57;11.80;99.90
17529;DHT22;8882;53.192;8.184;2022-10-31T05:35:25;11.80;99.90
17529;DHT22;8882;53.192;8.184;2022-10-31T05:37:51;11.80;99.90
17529;DHT22;8882;53.192;8.184;2022-10-31T05:40:18;11.80;99.90
17529;DHT22;8882;53.192;8.184;2022-10-31T05:42:44;11.80;99.90
17529;DHT22;8882;53.192;8.184;2022-10-31T05:45:15;11.80;99.90
17529;DHT22;8882;53.192;8.184;2022-10-31T05:47:41;11.80;99.90
17529;DHT22;8882;53.192;8.184;2022-10-31T05:50:08;11.70;99.90
17529;DHT22;8882;53.192;8.184;2022-10-31T05:52:34;11.70;99.90
17529;DHT22;8882;53.192;8.184;2022-10-31T05:55:00;11.70;99.90
17529;DHT22;8882;53.192;8.184;2022-10-31T05:57:25;11.70;99.90
17529;DHT22;8882;53.192;8.184;2022-10-31T05:59:51;11.70;99.90
17529;DHT22;8882;53.192;8.184;2022-10-31T06:02:20;11.70;99.90
17529;DHT22;8882;53.192;8.184;2022-10-31T06:04:46;11.70;99.90
17529;DHT22;8882;53.192;8.184;2022-10-31T06:07:11;11.70;99.90
17529;DHT22;8882;53.192;8.184;2022-10-31T06:09:37;11.70;99.90
17529;DHT22;8882;53.192;8.184;2022-10-31T06:12:02;11.60;99.90
17529;DHT22;8882;53.192;8.184;2022-10-31T06:14:28;11.60;99.90
17529;DHT22;8882;53.192;8.184;2022-10-31T06:16:56;11.60;99.90
17529;DHT22;8882;53.192;8.184;2022-10-31T06:19:22;11.60;99.90
17529;DHT22;8882;53.192;8.184;2022-10-31T06:21:47;11.50;99.90
17529;DHT22;8882;53.192;8.184;2022-10-31T06:24:13;11.50;99.90
17529;DHT22;8882;53.192;8.184;2022-10-31T06:26:40;11.50;99.90
17529;DHT22;8882;53.192;8.184;2022-10-31T06:29:05;11.50;99.90
17529;DHT22;8882;53.192;8.184;2022-10-31T06:31:31;11.50;99.90
17529;DHT22;8882;53.192;8.184;2022-10-31T06:33:56;11.50;99.90
17529;DHT22;8882;53.192;8.184;2022-10-31T06:36:22;11.40;99.90
17529;DHT22;8882;53.192;8.184;2022-10-31T06:38:47;11.40;99.90
17529;DHT22;8882;53.192;8.184;2022-10-31T06:41:13;11.40;99.90
17529;DHT22;8882;53.192;8.184;2022-10-31T06:43:38;11.40;99.90
17529;DHT22;8882;53.192;8.184;2022-10-31T06:46:05;11.40;99.90
17529;DHT22;8882;53.192;8.184;2022-10-31T06:48:31;11.50;99.90
17529;DHT22;8882;53.192;8.184;2022-10-31T06:50:58;11.50;99.90
17529;DHT22;8882;53.192;8.184;2022-10-31T06:53:25;11.50;99.90
17529;DHT22;8882;53.192;8.184;2022-10-31T06:55:50;11.40;99.90
17529;DHT22;8882;53.192;8.184;2022-10-31T06:58:16;11.40;99.90
17529;DHT22;8882;53.192;8.184;2022-10-31T07:00:41;11.50;99.90
17529;DHT22;8882;53.192;8.184;2022-10-31T07:03:10;11.50;99.90
17529;DHT22;8882;53.192;8.184;2022-10-31T07:05:36;11.60;99.90
17529;DHT22;8882;53.192;8.184;2022-10-31T07:08:05;11.50;99.90
17529;DHT22;8882;53.192;8.184;2022-10-31T07:10:33;11.60;99.90
17529;DHT22;8882;53.192;8.184;2022-10-31T07:13:01;11.50;99.90
17529;DHT22;8882;53.192;8.184;2022-10-31T07:15:29;11.60;99.90
17529;DHT22;8882;53.192;8.184;2022-10-31T07:17:59;11.60;99.90
17529;DHT22;8882;53.192;8.184;2022-10-31T07:20:26;11.50;99.90
17529;DHT22;8882;53.192;8.184;2022-10-31T07:22:52;11.50;99.90
17529;DHT22;8882;53.192;8.184;2022-10-31T07:25:17;11.50;99.90
17529;DHT22;8882;53.192;8.184;2022-10-31T07:27:43;11.50;99.90
17529;DHT22;8882;53.192;8.184;2022-10-31T07:30:11;11.40;99.90
17529;DHT22;8882;53.192;8.184;2022-10-31T07:32:57;11.50;99.90
17529;DHT22;8882;53.192;8.184;2022-10-31T07:35:27;11.50;99.90
17529;DHT22;8882;53.192;8.184;2022-10-31T07:37:52;11.50;99.90
17529;DHT22;8882;53.192;8.184;2022-10-31T07:40:19;11.60;99.90
17529;DHT22;8882;53.192;8.184;2022-10-31T07:42:46;11.60;99.90
17529;DHT22;8882;53.192;8.184;2022-10-31T07:45:14;11.60;99.90
17529;DHT22;8882;53.192;8.184;2022-10-31T07:47:48;11.70;99.90
17529;DHT22;8882;53.192;8.184;2022-10-31T07:50:22;11.60;99.90
17529;DHT22;8882;53.192;8.184;2022-10-31T07:52:48;11.60;99.90
17529;DHT22;8882;53.192;8.184;2022-10-31T07:55:22;11.60;99.90
17529;DHT22;8882;53.192;8.184;2022-10-31T07:57:56;11.60;99.90
17529;DHT22;8882;53.192;8.184;2022-10-31T08:00:21;11.60;99.90
17529;DHT22;8882;53.192;8.184;2022-10-31T08:02:47;11.60;99.90
17529;DHT22;8882;53.192;8.184;2022-10-31T08:05:12;11.60;99.90
17529;DHT22;8882;53.192;8.184;2022-10-31T08:07:38;11.60;99.90
17529;DHT22;8882;53.192;8.184;2022-10-31T08:10:04;11.60;99.90
17529;DHT22;8882;53.192;8.184;2022-10-31T08:12:30;11.70;99.90
17529;DHT22;8882;53.192;8.184;2022-10-31T08:14:55;11.70;99.90
17529;DHT22;8882;53.192;8.184;2022-10-31T08:17:21;11.70;99.90
17529;DHT22;8882;53.192;8.184;2022-10-31T08:19:46;11.80;99.90
17529;DHT22;8882;53.192;8.184;2022-10-31T08:22:12;11.80;99.90
17529;DHT22;8882;53.192;8.184;2022-10-31T08:24:37;11.80;99.90
17529;DHT22;8882;53.192;8.184;2022-10-31T08:27:03;11.80;99.90
17529;DHT22;8882;53.192;8.184;2022-10-31T08:29:28;11.80;99.90
17529;DHT22;8882;53.192;8.184;2022-10-31T08:31:53;11.90;99.90
17529;DHT22;8882;53.192;8.184;2022-10-31T08:34:19;11.80;99.90
17529;DHT22;8882;53.192;8.184;2022-10-31T08:36:44;11.80;99.90
17529;DHT22;8882;53.192;8.184;2022-10-31T08:39:11;11.90;99.90
17529;DHT22;8882;53.192;8.184;2022-10-31T08:41:37;11.90;99.90
17529;DHT22;8882;53.192;8.184;2022-10-31T08:44:02;11.80;99.90
17529;DHT22;8882;53.192;8.184;2022-10-31T08:46:28;11.90;99.90
17529;DHT22;8882;53.192;8.184;2022-10-31T08:48:53;12.00;99.90
17529;DHT22;8882;53.192;8.184;2022-10-31T08:51:19;11.90;99.90
17529;DHT22;8882;53.192;8.184;2022-10-31T08:53:44;11.90;99.90
17529;DHT22;8882;53.192;8.184;2022-10-31T08:56:10;11.80;99.90
17529;DHT22;8882;53.192;8.184;2022-10-31T08:58:35;11.90;99.90
17529;DHT22;8882;53.192;8.184;2022-10-31T09:01:01;11.90;99.90
17529;DHT22;8882;53.192;8.184;2022-10-31T09:03:29;12.00;99.90
17529;DHT22;8882;53.192;8.184;2022-10-31T09:05:59;12.00;99.90
17529;DHT22;8882;53.192;8.184;2022-10-31T09:08:25;12.10;99.90
17529;DHT22;8882;53.192;8.184;2022-10-31T09:10:51;12.10;99.90
17529;DHT22;8882;53.192;8.184;2022-10-31T09:13:19;12.10;99.90
17529;DHT22;8882;53.192;8.184;2022-10-31T09:15:46;12.10;99.90
17529;DHT22;8882;53.192;8.184;2022-10-31T09:18:13;12.20;99.90
17529;DHT22;8882;53.192;8.184;2022-10-31T09:20:40;12.40;99.90
17529;DHT22;8882;53.192;8.184;2022-10-31T09:23:20;12.50;99.90
17529;DHT22;8882;53.192;8.184;2022-10-31T09:25:46;12.60;99.90
17529;DHT22;8882;53.192;8.184;2022-10-31T09:28:14;12.70;99.90
17529;DHT22;8882;53.192;8.184;2022-10-31T09:30:41;12.70;99.90
17529;DHT22;8882;53.192;8.184;2022-10-31T09:33:11;12.80;99.90
17529;DHT22;8882;53.192;8.184;2022-10-31T09:35:37;12.90;99.90
17529;DHT22;8882;53.192;8.184;2022-10-31T09:38:05;12.90;99.90
17529;DHT22;8882;53.192;8.184;2022-10-31T09:40:38;13.00;99.90
17529;DHT22;8882;53.192;8.184;2022-10-31T09:43:14;13.10;99.90
17529;DHT22;8882;53.192;8.184;2022-10-31T09:51:25;13.30;99.90
17529;DHT22;8882;53.192;8.184;2022-10-31T09:54:06;13.30;99.90
17529;DHT22;8882;53.192;8.184;2022-10-31T09:56:34;13.40;99.90
17529;DHT22;8882;53.192;8.184;2022-10-31T09:59:02;13.40;99.90
17529;DHT22;8882;53.192;8.184;2022-10-31T10:01:39;13.50;99.90
17529;DHT22;8882;53.192;8.184;2022-10-31T10:04:28;13.60;99.90
17529;DHT22;8882;53.192;8.184;2022-10-31T10:06:55;13.60;99.90
17529;DHT22;8882;53.192;8.184;2022-10-31T10:09:25;13.60;99.90
17529;DHT22;8882;53.192;8.184;2022-10-31T10:12:15;13.70;99.90
17529;DHT22;8882;53.192;8.184;2022-10-31T10:15:00;13.80;99.90
17529;DHT22;8882;53.192;8.184;2022-10-31T10:17:41;13.90;99.90
17529;DHT22;8882;53.192;8.184;2022-10-31T10:23:21;14.20;99.90
17529;DHT22;8882;53.192;8.184;2022-10-31T10:25:52;14.50;99.90
17529;DHT22;8882;53.192;8.184;2022-10-31T10:28:27;14.60;99.90
17529;DHT22;8882;53.192;8.184;2022-10-31T10:31:01;14.60;99.90
17529;DHT22;8882;53.192;8.184;2022-10-31T10:33:42;14.80;99.90
17529;DHT22;8882;53.192;8.184;2022-10-31T10:36:13;14.90;99.90
17529;DHT22;8882;53.192;8.184;2022-10-31T10:38:53;15.00;99.90
17529;DHT22;8882;53.192;8.184;2022-10-31T10:41:22;15.20;99.90
17529;DHT22;8882;53.192;8.184;2022-10-31T10:43:51;15.30;99.90
17529;DHT22;8882;53.192;8.184;2022-10-31T10:46:40;15.40;99.90
17529;DHT22;8882;53.192;8.184;2022-10-31T10:49:32;15.50;99.90
17529;DHT22;8882;53.192;8.184;2022-10-31T10:55:06;15.80;99.90
17529;DHT22;8882;53.192;8.184;2022-10-31T10:57:54;15.90;99.90
17529;DHT22;8882;53.192;8.184;2022-10-31T11:00:25;16.00;99.90
17529;DHT22;8882;53.192;8.184;2022-10-31T11:02:52;15.90;99.90
17529;DHT22;8882;53.192;8.184;2022-10-31T11:05:41;16.00;99.90
17529;DHT22;8882;53.192;8.184;2022-10-31T11:08:08;16.20;99.90
17529;DHT22;8882;53.192;8.184;2022-10-31T11:10:34;16.10;99.90
17529;DHT22;8882;53.192;8.184;2022-10-31T11:15:54;16.30;99.90
17529;DHT22;8882;53.192;8.184;2022-10-31T11:18:23;16.30;99.90
17529;DHT22;8882;53.192;8.184;2022-10-31T11:20:54;16.40;99.90
17529;DHT22;8882;53.192;8.184;2022-10-31T11:23:22;16.30;99.90
17529;DHT22;8882;53.192;8.184;2022-10-31T11:25:50;16.30;99.90
17529;DHT22;8882;53.192;8.184;2022-10-31T11:28:16;16.30;99.90
17529;DHT22;8882;53.192;8.184;2022-10-31T11:30:48;16.40;99.90
17529;DHT22;8882;53.192;8.184;2022-10-31T11:33:19;16.40;99.90
17529;DHT22;8882;53.192;8.184;2022-10-31T11:35:45;16.30;99.90
17529;DHT22;8882;53.192;8.184;2022-10-31T11:38:19;16.40;99.90
17529;DHT22;8882;53.192;8.184;2022-10-31T11:41:00;16.50;99.90
17529;DHT22;8882;53.192;8.184;2022-10-31T11:43:28;16.60;99.90
17529;DHT22;8882;53.192;8.184;2022-10-31T11:45:54;16.60;99.90
17529;DHT22;8882;53.192;8.184;2022-10-31T11:48:22;16.60;99.90
17529;DHT22;8882;53.192;8.184;2022-10-31T11:50:51;16.60;99.90
17529;DHT22;8882;53.192;8.184;2022-10-31T11:53:21;16.50;99.90
17529;DHT22;8882;53.192;8.184;2022-10-31T11:56:04;16.30;99.90
17529;DHT22;8882;53.192;8.184;2022-10-31T11:58:30;16.30;99.90
17529;DHT22;8882;53.192;8.184;2022-10-31T12:00:57;16.20;99.90
17529;DHT22;8882;53.192;8.184;2022-10-31T12:06:07;16.10;99.90
17529;DHT22;8882;53.192;8.184;2022-10-31T12:08:36;16.20;99.90
17529;DHT22;8882;53.192;8.184;2022-10-31T12:11:27;16.20;99.90
17529;DHT22;8882;53.192;8.184;2022-10-31T12:27:52;16.20;99.90
17529;DHT22;8882;53.192;8.184;2022-10-31T12:30:31;16.20;99.90
17529;DHT22;8882;53.192;8.184;2022-10-31T12:35:59;16.00;99.90
17529;DHT22;8882;53.192;8.184;2022-10-31T12:38:52;16.00;99.90
17529;DHT22;8882;53.192;8.184;2022-10-31T12:41:44;15.90;99.90
17529;DHT22;8882;53.192;8.184;2022-10-31T12:44:40;15.80;99.90
17529;DHT22;8882;53.192;8.184;2022-10-31T12:50:22;15.90;99.90
17529;DHT22;8882;53.192;8.184;2022-10-31T12:53:09;15.90;99.90
17529;DHT22;8882;53.192;8.184;2022-10-31T12:56:05;16.00;99.90
17529;DHT22;8882;53.192;8.184;2022-10-31T13:01:17;15.90;99.90
17529;DHT22;8882;53.192;8.184;2022-10-31T13:04:15;15.90;99.90
17529;DHT22;8882;53.192;8.184;2022-10-31T13:06:55;15.80;99.90
17529;DHT22;8882;53.192;8.184;2022-10-31T13:09:38;15.80;99.90
17529;DHT22;8882;53.192;8.184;2022-10-31T13:12:11;15.80;99.90
17529;DHT22;8882;53.192;8.184;2022-10-31T13:14:47;15.80;99.90
17529;DHT22;8882;53.192;8.184;2022-10-31T13:20:03;15.80;99.90
17529;DHT22;8882;53.192;8.184;2022-10-31T13:22:31;15.80;99.90
17529;DHT22;8882;53.192;8.184;2022-10-31T13:25:18;15.80;99.90
17529;DHT22;8882;53.192;8.184;2022-10-31T13:28:03;15.80;99.90
17529;DHT22;8882;53.192;8.184;2022-10-31T13:30:33;15.80;99.90
17529;DHT22;8882;53.192;8.184;2022-10-31T13:33:13;15.80;99.90
17529;DHT22;8882;53.192;8.184;2022-10-31T13:35:55;15.90;99.90
17529;DHT22;8882;53.192;8.184;2022-10-31T13:38:35;16.00;99.90
17529;DHT22;8882;53.192;8.184;2022-10-31T13:41:12;16.10;99.90
17529;DHT22;8882;53.192;8.184;2022-10-31T13:48:58;15.90;99.90
17529;DHT22;8882;53.192;8.184;2022-10-31T13:51:33;15.90;99.90
17529;DHT22;8882;53.192;8.184;2022-10-31T13:54:06;15.90;99.90
17529;DHT22;8882;53.192;8.184;2022-10-31T13:56:49;15.80;99.90
17529;DHT22;8882;53.192;8.184;2022-10-31T13:59:18;15.80;99.90
17529;DHT22;8882;53.192;8.184;2022-10-31T14:02:17;15.80;99.90
17529;DHT22;8882;53.192;8.184;2022-10-31T14:04:48;15.90;99.90
17529;DHT22;8882;53.192;8.184;2022-10-31T14:07:17;15.80;99.90
17529;DHT22;8882;53.192;8.184;2022-10-31T14:12:43;15.80;99.90
17529;DHT22;8882;53.192;8.184;2022-10-31T14:15:17;15.80;99.90
17529;DHT22;8882;53.192;8.184;2022-10-31T14:17:50;15.70;99.90
17529;DHT22;8882;53.192;8.184;2022-10-31T14:22:42;15.80;99.90
17529;DHT22;8882;53.192;8.184;2022-10-31T14:25:30;15.80;99.90
17529;DHT22;8882;53.192;8.184;2022-10-31T14:27:56;15.80;99.90
17529;DHT22;8882;53.192;8.184;2022-10-31T14:30:25;15.80;99.90
17529;DHT22;8882;53.192;8.184;2022-10-31T14:33:00;15.70;99.90
17529;DHT22;8882;53.192;8.184;2022-10-31T14:35:57;15.70;99.90
17529;DHT22;8882;53.192;8.184;2022-10-31T14:38:54;15.80;99.90
17529;DHT22;8882;53.192;8.184;2022-10-31T14:44:17;15.50;99.90
17529;DHT22;8882;53.192;8.184;2022-10-31T14:47:11;15.50;99.90
17529;DHT22;8882;53.192;8.184;2022-10-31T14:52:14;15.40;99.90
17529;DHT22;8882;53.192;8.184;2022-10-31T14:54:44;15.30;99.90
17529;DHT22;8882;53.192;8.184;2022-10-31T14:57:19;15.20;99.90
17529;DHT22;8882;53.192;8.184;2022-10-31T14:59:50;15.20;99.90
17529;DHT22;8882;53.192;8.184;2022-10-31T15:02:45;15.10;99.90
17529;DHT22;8882;53.192;8.184;2022-10-31T15:05:14;15.00;99.90
17529;DHT22;8882;53.192;8.184;2022-10-31T15:07:56;15.00;99.90
17529;DHT22;8882;53.192;8.184;2022-10-31T15:10:29;15.00;99.90
17529;DHT22;8882;53.192;8.184;2022-10-31T15:13:17;15.00;99.90
17529;DHT22;8882;53.192;8.184;2022-10-31T15:15:44;14.90;99.90
17529;DHT22;8882;53.192;8.184;2022-10-31T15:18:16;14.90;99.90
17529;DHT22;8882;53.192;8.184;2022-10-31T15:20:44;14.80;99.90
17529;DHT22;8882;53.192;8.184;2022-10-31T15:23:16;14.80;99.90
17529;DHT22;8882;53.192;8.184;2022-10-31T15:25:41;14.80;99.90
17529;DHT22;8882;53.192;8.184;2022-10-31T15:28:16;14.80;99.90
17529;DHT22;8882;53.192;8.184;2022-10-31T15:30:56;14.70;99.90
17529;DHT22;8882;53.192;8.184;2022-10-31T15:33:27;14.70;99.90
17529;DHT22;8882;53.192;8.184;2022-10-31T15:36:01;14.70;99.90
17529;DHT22;8882;53.192;8.184;2022-10-31T15:38:28;14.70;99.90
17529;DHT22;8882;53.192;8.184;2022-10-31T15:41:03;14.70;99.90
17529;DHT22;8882;53.192;8.184;2022-10-31T15:43:35;14.70;99.90
17529;DHT22;8882;53.192;8.184;2022-10-31T15:46:02;14.70;99.90
17529;DHT22;8882;53.192;8.184;2022-10-31T15:48:28;14.70;99.90
17529;DHT22;8882;53.192;8.184;2022-10-31T15:50:57;14.70;99.90
17529;DHT22;8882;53.192;8.184;2022-10-31T15:55:59;14.50;99.90
17529;DHT22;8882;53.192;8.184;2022-10-31T15:58:26;14.50;99.90
17529;DHT22;8882;53.192;8.184;2022-10-31T16:01:04;14.50;99.90
17529;DHT22;8882;53.192;8.184;2022-10-31T16:03:32;14.50;99.90
17529;DHT22;8882;53.192;8.184;2022-10-31T16:06:00;14.40;99.90
17529;DHT22;8882;53.192;8.184;2022-10-31T16:13:31;14.30;99.90
17529;DHT22;8882;53.192;8.184;2022-10-31T16:16:00;14.30;99.90
17529;DHT22;8882;53.192;8.184;2022-10-31T16:18:27;14.20;99.90
17529;DHT22;8882;53.192;8.184;2022-10-31T16:20:55;14.20;99.90
17529;DHT22;8882;53.192;8.184;2022-10-31T16:23:23;14.20;99.90
17529;DHT22;8882;53.192;8.184;2022-10-31T16:25:50;14.20;99.90
17529;DHT22;8882;53.192;8.184;2022-10-31T16:28:22;14.20;99.90
17529;DHT22;8882;53.192;8.184;2022-10-31T16:30:49;14.20;99.90
17529;DHT22;8882;53.192;8.184;2022-10-31T16:33:28;14.20;99.90
17529;DHT22;8882;53.192;8.184;2022-10-31T16:35:55;14.20;99.90
17529;DHT22;8882;53.192;8.184;2022-10-31T16:38:21;14.10;99.90
17529;DHT22;8882;53.192;8.184;2022-10-31T16:40:48;14.10;99.90
17529;DHT22;8882;53.192;8.184;2022-10-31T16:43:16;14.10;99.90
17529;DHT22;8882;53.192;8.184;2022-10-31T16:45:48;14.10;99.90
17529;DHT22;8882;53.192;8.184;2022-10-31T16:48:16;14.00;99.90
17529;DHT22;8882;53.192;8.184;2022-10-31T16:50:43;14.00;99.90
17529;DHT22;8882;53.192;8.184;2022-10-31T16:53:10;14.00;99.90
17529;DHT22;8882;53.192;8.184;2022-10-31T16:55:57;14.00;99.90
17529;DHT22;8882;53.192;8.184;2022-10-31T16:58:24;13.90;99.90
17529;DHT22;8882;53.192;8.184;2022-10-31T17:00:50;13.90;99.90
17529;DHT22;8882;53.192;8.184;2022-10-31T17:03:16;13.90;99.90
17529;DHT22;8882;53.192;8.184;2022-10-31T17:05:42;14.00;99.90
17529;DHT22;8882;53.192;8.184;2022-10-31T17:08:07;13.90;99.90
17529;DHT22;8882;53.192;8.184;2022-10-31T17:10:34;13.90;99.90
17529;DHT22;8882;53.192;8.184;2022-10-31T17:13:00;13.80;99.90
17529;DHT22;8882;53.192;8.184;2022-10-31T17:15:28;13.80;99.90
17529;DHT22;8882;53.192;8.184;2022-10-31T17:17:57;13.80;99.90
17529;DHT22;8882;53.192;8.184;2022-10-31T17:20:28;13.70;99.90
17529;DHT22;8882;53.192;8.184;2022-10-31T17:22:54;13.70;99.90
17529;DHT22;8882;53.192;8.184;2022-10-31T17:25:26;13.80;99.90
17529;DHT22;8882;53.192;8.184;2022-10-31T17:27:52;13.70;99.90
17529;DHT22;8882;53.192;8.184;2022-10-31T17:30:19;13.70;99.90
17529;DHT22;8882;53.192;8.184;2022-10-31T17:32:45;13.60;99.90
17529;DHT22;8882;53.192;8.184;2022-10-31T17:35:12;13.60;99.90
17529;DHT22;8882;53.192;8.184;2022-10-31T17:37:38;13.60;99.90
17529;DHT22;8882;53.192;8.184;2022-10-31T17:40:05;13.60;99.90
17529;DHT22;8882;53.192;8.184;2022-10-31T17:42:31;13.60;99.90
17529;DHT22;8882;53.192;8.184;2022-10-31T17:44:56;13.60;99.90
17529;DHT22;8882;53.192;8.184;2022-10-31T17:47:22;13.60;99.90
17529;DHT22;8882;53.192;8.184;2022-10-31T17:49:48;13.60;99.90
17529;DHT22;8882;53.192;8.184;2022-10-31T17:52:13;13.50;99.90
17529;DHT22;8882;53.192;8.184;2022-10-31T17:54:39;13.50;99.90
17529;DHT22;8882;53.192;8.184;2022-10-31T17:57:04;13.50;99.90
17529;DHT22;8882;53.192;8.184;2022-10-31T17:59:30;13.50;99.90
17529;DHT22;8882;53.192;8.184;2022-10-31T18:01:56;13.40;99.90
17529;DHT22;8882;53.192;8.184;2022-10-31T18:04:22;13.40;99.90
17529;DHT22;8882;53.192;8.184;2022-10-31T18:06:47;13.50;99.90
17529;DHT22;8882;53.192;8.184;2022-10-31T18:09:14;13.50;99.90
17529;DHT22;8882;53.192;8.184;2022-10-31T18:11:40;13.50;99.90
17529;DHT22;8882;53.192;8.184;2022-10-31T18:14:05;13.40;99.90
17529;DHT22;8882;53.192;8.184;2022-10-31T18:16:31;13.50;99.90
17529;DHT22;8882;53.192;8.184;2022-10-31T18:18:58;13.50;99.90
17529;DHT22;8882;53.192;8.184;2022-10-31T18:21:25;13.40;99.90
17529;DHT22;8882;53.192;8.184;2022-10-31T18:23:54;13.50;99.90
17529;DHT22;8882;53.192;8.184;2022-10-31T18:26:21;13.50;99.90
17529;DHT22;8882;53.192;8.184;2022-10-31T18:28:47;13.50;99.90
17529;DHT22;8882;53.192;8.184;2022-10-31T18:31:12;13.50;99.90
17529;DHT22;8882;53.192;8.184;2022-10-31T18:33:38;13.50;99.90
17529;DHT22;8882;53.192;8.184;2022-10-31T18:36:05;13.50;99.90
17529;DHT22;8882;53.192;8.184;2022-10-31T18:38:30;13.50;99.90
17529;DHT22;8882;53.192;8.184;2022-10-31T18:40:56;13.50;99.90
17529;DHT22;8882;53.192;8.184;2022-10-31T18:43:21;13.50;99.90
17529;DHT22;8882;53.192;8.184;2022-10-31T18:45:47;13.50;99.90
17529;DHT22;8882;53.192;8.184;2022-10-31T18:48:14;13.40;99.90
17529;DHT22;8882;53.192;8.184;2022-10-31T18:50:40;13.50;99.90
17529;DHT22;8882;53.192;8.184;2022-10-31T18:53:05;13.50;99.90
17529;DHT22;8882;53.192;8.184;2022-10-31T18:55:31;13.60;99.90
17529;DHT22;8882;53.192;8.184;2022-10-31T18:57:57;13.50;99.90
17529;DHT22;8882;53.192;8.184;2022-10-31T19:00:22;13.60;99.90
17529;DHT22;8882;53.192;8.184;2022-10-31T19:02:48;13.60;99.90
17529;DHT22;8882;53.192;8.184;2022-10-31T19:05:13;13.60;99.90
17529;DHT22;8882;53.192;8.184;2022-10-31T19:07:39;13.60;99.90
17529;DHT22;8882;53.192;8.184;2022-10-31T19:10:04;13.60;99.90
17529;DHT22;8882;53.192;8.184;2022-10-31T19:12:31;13.60;99.90
17529;DHT22;8882;53.192;8.184;2022-10-31T19:14:57;13.60;99.90
17529;DHT22;8882;53.192;8.184;2022-10-31T19:17:24;13.60;99.90
17529;DHT22;8882;53.192;8.184;2022-10-31T19:19:49;13.50;99.90
17529;DHT22;8882;53.192;8.184;2022-10-31T19:22:15;13.60;99.90
17529;DHT22;8882;53.192;8.184;2022-10-31T19:24:40;13.50;99.90
17529;DHT22;8882;53.192;8.184;2022-10-31T19:27:08;13.50;99.90
17529;DHT22;8882;53.192;8.184;2022-10-31T19:29:33;13.50;99.90
17529;DHT22;8882;53.192;8.184;2022-10-31T19:31:59;13.50;99.90
17529;DHT22;8882;53.192;8.184;2022-10-31T19:34:25;13.60;99.90
17529;DHT22;8882;53.192;8.184;2022-10-31T19:36:51;13.50;99.90
17529;DHT22;8882;53.192;8.184;2022-10-31T19:39:17;13.50;99.90
17529;DHT22;8882;53.192;8.184;2022-10-31T19:41:42;13.50;99.90
17529;DHT22;8882;53.192;8.184;2022-10-31T19:44:08;13.60;99.90
17529;DHT22;8882;53.192;8.184;2022-10-31T19:46:34;13.60;99.90
17529;DHT22;8882;53.192;8.184;2022-10-31T19:49:00;13.60;99.90
17529;DHT22;8882;53.192;8.184;2022-10-31T19:51:25;13.60;99.90
17529;DHT22;8882;53.192;8.184;2022-10-31T19:53:52;13.50;99.90
17529;DHT22;8882;53.192;8.184;2022-10-31T19:56:23;13.60;99.90
17529;DHT22;8882;53.192;8.184;2022-10-31T19:58:49;13.50;99.90
17529;DHT22;8882;53.192;8.184;2022-10-31T20:01:19;13.60;99.90
17529;DHT22;8882;53.192;8.184;2022-10-31T20:03:45;13.60;99.90
17529;DHT22;8882;53.192;8.184;2022-10-31T20:06:26;13.60;99.90
17529;DHT22;8882;53.192;8.184;2022-10-31T20:08:53;13.60;99.90
17529;DHT22;8882;53.192;8.184;2022-10-31T20:11:21;13.60;99.90
17529;DHT22;8882;53.192;8.184;2022-10-31T20:13:47;13.60;99.90
17529;DHT22;8882;53.192;8.184;2022-10-31T20:16:13;13.60;99.90
17529;DHT22;8882;53.192;8.184;2022-10-31T20:18:42;13.60;99.90
17529;DHT22;8882;53.192;8.184;2022-10-31T20:21:10;13.60;99.90
17529;DHT22;8882;53.192;8.184;2022-10-31T20:23:37;13.60;99.90
17529;DHT22;8882;53.192;8.184;2022-10-31T20:26:03;13.60;99.90
17529;DHT22;8882;53.192;8.184;2022-10-31T20:28:29;13.60;99.90
17529;DHT22;8882;53.192;8.184;2022-10-31T20:30:55;13.60;99.90
17529;DHT22;8882;53.192;8.184;2022-10-31T20:33:21;13.70;99.90
17529;DHT22;8882;53.192;8.184;2022-10-31T20:35:46;13.70;99.90
17529;DHT22;8882;53.192;8.184;2022-10-31T20:38:12;13.70;99.90
17529;DHT22;8882;53.192;8.184;2022-10-31T20:40:38;13.70;99.90
17529;DHT22;8882;53.192;8.184;2022-10-31T20:43:04;13.70;99.90
17529;DHT22;8882;53.192;8.184;2022-10-31T20:45:30;13.70;99.90
17529;DHT22;8882;53.192;8.184;2022-10-31T20:47:56;13.70;99.90
17529;DHT22;8882;53.192;8.184;2022-10-31T20:50:22;13.70;99.90
17529;DHT22;8882;53.192;8.184;2022-10-31T20:52:48;13.70;99.90
17529;DHT22;8882;53.192;8.184;2022-10-31T20:55:13;13.70;99.90
17529;DHT22;8882;53.192;8.184;2022-10-31T20:57:39;13.70;99.90
17529;DHT22;8882;53.192;8.184;2022-10-31T21:00:06;13.70;99.90
17529;DHT22;8882;53.192;8.184;2022-10-31T21:02:31;13.70;99.90
17529;DHT22;8882;53.192;8.184;2022-10-31T21:04:57;13.70;99.90
17529;DHT22;8882;53.192;8.184;2022-10-31T21:07:23;13.70;99.90
17529;DHT22;8882;53.192;8.184;2022-10-31T21:09:48;13.70;99.90
17529;DHT22;8882;53.192;8.184;2022-10-31T21:15:17;13.70;99.90
17529;DHT22;8882;53.192;8.184;2022-10-31T21:17:43;13.70;99.90
17529;DHT22;8882;53.192;8.184;2022-10-31T21:20:09;13.70;99.90
17529;DHT22;8882;53.192;8.184;2022-10-31T21:22:35;13.70;99.90
17529;DHT22;8882;53.192;8.184;2022-10-31T21:25:01;13.70;99.90
17529;DHT22;8882;53.192;8.184;2022-10-31T21:27:26;13.60;99.90
17529;DHT22;8882;53.192;8.184;2022-10-31T21:29:52;13.60;99.90
17529;DHT22;8882;53.192;8.184;2022-10-31T21:32:17;13.60;99.90
17529;DHT22;8882;53.192;8.184;2022-10-31T21:34:43;13.60;99.90
17529;DHT22;8882;53.192;8.184;2022-10-31T21:37:08;13.60;99.90
17529;DHT22;8882;53.192;8.184;2022-10-31T21:39:34;13.60;99.90
17529;DHT22;8882;53.192;8.184;2022-10-31T21:41:59;13.50;99.90
17529;DHT22;8882;53.192;8.184;2022-10-31T21:44:25;13.50;99.90
17529;DHT22;8882;53.192;8.184;2022-10-31T21:46:50;13.50;99.90
17529;DHT22;8882;53.192;8.184;2022-10-31T21:49:16;13.50;99.90
17529;DHT22;8882;53.192;8.184;2022-10-31T21:51:41;13.50;99.90
17529;DHT22;8882;53.192;8.184;2022-10-31T21:54:11;13.50;99.90
17529;DHT22;8882;53.192;8.184;2022-10-31T21:56:56;13.50;99.90
17529;DHT22;8882;53.192;8.184;2022-10-31T21:59:22;13.50;99.90
